Terminal Aerodrome Forecast
Issued by NWS

Home | Current Version | Previous Version | Text Only | Print | Product List | Glossary On
Versions: 1 2 3 4 5 6 7 8 9 10 11 12 13 14 15 16 17 18 19
000
FTUS43 KFGF 221400 AAA
TAFBJI
TAF AMD
KBJI 221412Z 2214/2312 16003KT P6SM OVC008
      TEMPO 2214/2218 OVC010
     FM221800 32003KT 3SM BR OVC012
     FM222300 32006KT P6SM BKN025
     FM230400 VRB03KT P6SM OVC012
     FM230900 VRB03KT P6SM OVC006=

USA.gov is the U.S. government's official web portal to all federal, state and local government web resources and services.